sensor_id;sensor_type;location;lat;lon;timestamp;P1;durP1;ratioP1;P2;durP2;ratioP2
74344;SDS011;62776;50.518;6.732;2022-10-16T00:01:08;3.28;;;1.50;;
74344;SDS011;62776;50.518;6.732;2022-10-16T00:03:57;1.50;;;1.27;;
74344;SDS011;62776;50.518;6.732;2022-10-16T00:06:44;2.53;;;1.50;;
74344;SDS011;62776;50.518;6.732;2022-10-16T00:09:30;1.60;;;1.40;;
74344;SDS011;62776;50.518;6.732;2022-10-16T00:12:17;3.15;;;1.58;;
74344;SDS011;62776;50.518;6.732;2022-10-16T00:15:03;1.83;;;1.20;;
74344;SDS011;62776;50.518;6.732;2022-10-16T00:17:49;1.90;;;1.40;;
74344;SDS011;62776;50.518;6.732;2022-10-16T00:20:35;1.25;;;1.17;;
74344;SDS011;62776;50.518;6.732;2022-10-16T00:23:21;1.98;;;1.30;;
74344;SDS011;62776;50.518;6.732;2022-10-16T00:26:16;1.40;;;1.30;;
74344;SDS011;62776;50.518;6.732;2022-10-16T00:29:03;2.65;;;1.40;;
74344;SDS011;62776;50.518;6.732;2022-10-16T00:31:50;1.48;;;1.35;;
74344;SDS011;62776;50.518;6.732;2022-10-16T00:34:36;2.83;;;1.40;;
74344;SDS011;62776;50.518;6.732;2022-10-16T00:37:22;2.92;;;1.40;;
74344;SDS011;62776;50.518;6.732;2022-10-16T00:40:09;1.67;;;1.58;;
74344;SDS011;62776;50.518;6.732;2022-10-16T00:42:55;2.90;;;1.23;;
74344;SDS011;62776;50.518;6.732;2022-10-16T00:45:41;2.00;;;1.30;;
74344;SDS011;62776;50.518;6.732;2022-10-16T00:48:27;1.80;;;1.23;;
74344;SDS011;62776;50.518;6.732;2022-10-16T00:51:14;1.25;;;1.15;;
74344;SDS011;62776;50.518;6.732;2022-10-16T00:54:02;2.60;;;1.08;;
74344;SDS011;62776;50.518;6.732;2022-10-16T00:56:53;1.20;;;1.15;;
74344;SDS011;62776;50.518;6.732;2022-10-16T00:59:42;1.77;;;1.50;;
74344;SDS011;62776;50.518;6.732;2022-10-16T01:02:28;1.02;;;0.90;;
74344;SDS011;62776;50.518;6.732;2022-10-16T01:05:14;1.73;;;1.10;;
74344;SDS011;62776;50.518;6.732;2022-10-16T01:08:13;2.15;;;1.25;;
74344;SDS011;62776;50.518;6.732;2022-10-16T01:11:51;1.67;;;1.00;;
74344;SDS011;62776;50.518;6.732;2022-10-16T01:14:53;2.40;;;1.20;;
74344;SDS011;62776;50.518;6.732;2022-10-16T01:17:51;3.10;;;1.25;;
74344;SDS011;62776;50.518;6.732;2022-10-16T01:20:53;1.60;;;1.20;;
74344;SDS011;62776;50.518;6.732;2022-10-16T01:27:05;1.70;;;1.13;;
74344;SDS011;62776;50.518;6.732;2022-10-16T01:30:36;2.60;;;1.65;;
74344;SDS011;62776;50.518;6.732;2022-10-16T01:33:10;1.52;;;1.30;;
74344;SDS011;62776;50.518;6.732;2022-10-16T01:36:08;3.25;;;1.30;;
74344;SDS011;62776;50.518;6.732;2022-10-16T01:39:06;4.28;;;1.58;;
74344;SDS011;62776;50.518;6.732;2022-10-16T01:41:58;3.08;;;1.40;;
74344;SDS011;62776;50.518;6.732;2022-10-16T01:44:50;1.58;;;1.25;;
74344;SDS011;62776;50.518;6.732;2022-10-16T01:47:37;3.33;;;1.63;;
74344;SDS011;62776;50.518;6.732;2022-10-16T01:50:25;2.20;;;1.50;;
74344;SDS011;62776;50.518;6.732;2022-10-16T01:53:12;1.35;;;1.20;;
74344;SDS011;62776;50.518;6.732;2022-10-16T01:56:00;1.33;;;1.23;;
74344;SDS011;62776;50.518;6.732;2022-10-16T01:58:58;1.75;;;1.65;;
74344;SDS011;62776;50.518;6.732;2022-10-16T02:01:51;2.65;;;1.67;;
74344;SDS011;62776;50.518;6.732;2022-10-16T02:07:33;3.17;;;1.30;;
74344;SDS011;62776;50.518;6.732;2022-10-16T02:10:20;3.45;;;1.30;;
74344;SDS011;62776;50.518;6.732;2022-10-16T02:13:26;1.40;;;1.30;;
74344;SDS011;62776;50.518;6.732;2022-10-16T02:16:18;1.42;;;1.20;;
74344;SDS011;62776;50.518;6.732;2022-10-16T02:19:04;2.40;;;1.10;;
74344;SDS011;62776;50.518;6.732;2022-10-16T02:21:59;1.45;;;1.30;;
74344;SDS011;62776;50.518;6.732;2022-10-16T02:24:54;3.00;;;1.40;;
74344;SDS011;62776;50.518;6.732;2022-10-16T02:27:53;2.38;;;1.48;;
74344;SDS011;62776;50.518;6.732;2022-10-16T02:31:01;2.47;;;1.20;;
74344;SDS011;62776;50.518;6.732;2022-10-16T02:33:50;1.27;;;1.15;;
74344;SDS011;62776;50.518;6.732;2022-10-16T02:36:37;2.20;;;1.42;;
74344;SDS011;62776;50.518;6.732;2022-10-16T02:39:26;1.25;;;1.13;;
74344;SDS011;62776;50.518;6.732;2022-10-16T02:42:14;2.10;;;1.40;;
74344;SDS011;62776;50.518;6.732;2022-10-16T02:45:02;4.35;;;1.33;;
74344;SDS011;62776;50.518;6.732;2022-10-16T02:47:50;1.40;;;1.30;;
74344;SDS011;62776;50.518;6.732;2022-10-16T02:50:36;2.75;;;1.40;;
74344;SDS011;62776;50.518;6.732;2022-10-16T02:53:22;1.77;;;1.55;;
74344;SDS011;62776;50.518;6.732;2022-10-16T02:56:08;1.70;;;1.60;;
74344;SDS011;62776;50.518;6.732;2022-10-16T02:58:54;1.42;;;1.33;;
74344;SDS011;62776;50.518;6.732;2022-10-16T03:01:43;2.95;;;1.40;;
74344;SDS011;62776;50.518;6.732;2022-10-16T03:04:31;1.80;;;1.60;;
74344;SDS011;62776;50.518;6.732;2022-10-16T03:07:18;2.17;;;1.80;;
74344;SDS011;62776;50.518;6.732;2022-10-16T03:10:04;1.80;;;1.70;;
74344;SDS011;62776;50.518;6.732;2022-10-16T03:12:50;3.58;;;1.98;;
74344;SDS011;62776;50.518;6.732;2022-10-16T03:15:36;1.52;;;1.30;;
74344;SDS011;62776;50.518;6.732;2022-10-16T03:18:22;2.70;;;1.77;;
74344;SDS011;62776;50.518;6.732;2022-10-16T03:21:08;2.30;;;2.10;;
74344;SDS011;62776;50.518;6.732;2022-10-16T03:23:54;1.90;;;1.80;;
74344;SDS011;62776;50.518;6.732;2022-10-16T03:26:41;2.70;;;1.63;;
74344;SDS011;62776;50.518;6.732;2022-10-16T03:29:27;2.78;;;1.60;;
74344;SDS011;62776;50.518;6.732;2022-10-16T03:32:14;2.35;;;1.88;;
74344;SDS011;62776;50.518;6.732;2022-10-16T03:35:00;3.60;;;1.50;;
74344;SDS011;62776;50.518;6.732;2022-10-16T03:37:46;2.78;;;1.80;;
74344;SDS011;62776;50.518;6.732;2022-10-16T03:40:32;3.03;;;1.60;;
74344;SDS011;62776;50.518;6.732;2022-10-16T03:43:18;1.73;;;1.60;;
74344;SDS011;62776;50.518;6.732;2022-10-16T03:46:04;2.13;;;1.73;;
74344;SDS011;62776;50.518;6.732;2022-10-16T03:48:50;3.28;;;2.20;;
74344;SDS011;62776;50.518;6.732;2022-10-16T03:51:36;2.97;;;1.80;;
74344;SDS011;62776;50.518;6.732;2022-10-16T03:54:23;2.17;;;1.75;;
74344;SDS011;62776;50.518;6.732;2022-10-16T03:57:09;2.15;;;1.83;;
74344;SDS011;62776;50.518;6.732;2022-10-16T03:59:55;2.13;;;2.03;;
74344;SDS011;62776;50.518;6.732;2022-10-16T04:02:41;3.13;;;2.03;;
74344;SDS011;62776;50.518;6.732;2022-10-16T04:05:27;3.33;;;2.05;;
74344;SDS011;62776;50.518;6.732;2022-10-16T04:08:13;2.95;;;2.53;;
74344;SDS011;62776;50.518;6.732;2022-10-16T04:10:59;3.15;;;2.30;;
74344;SDS011;62776;50.518;6.732;2022-10-16T04:13:46;2.50;;;2.33;;
74344;SDS011;62776;50.518;6.732;2022-10-16T04:16:32;2.42;;;2.28;;
74344;SDS011;62776;50.518;6.732;2022-10-16T04:19:18;2.72;;;2.40;;
74344;SDS011;62776;50.518;6.732;2022-10-16T04:22:04;2.75;;;2.55;;
74344;SDS011;62776;50.518;6.732;2022-10-16T04:24:50;2.70;;;2.50;;
74344;SDS011;62776;50.518;6.732;2022-10-16T04:27:36;3.22;;;2.63;;
74344;SDS011;62776;50.518;6.732;2022-10-16T04:30:23;3.97;;;2.65;;
74344;SDS011;62776;50.518;6.732;2022-10-16T04:33:10;2.58;;;2.38;;
74344;SDS011;62776;50.518;6.732;2022-10-16T04:35:56;2.80;;;2.60;;
74344;SDS011;62776;50.518;6.732;2022-10-16T04:38:43;2.90;;;2.70;;
74344;SDS011;62776;50.518;6.732;2022-10-16T04:41:29;5.15;;;2.42;;
74344;SDS011;62776;50.518;6.732;2022-10-16T04:44:15;3.33;;;3.10;;
74344;SDS011;62776;50.518;6.732;2022-10-16T04:47:01;2.63;;;2.42;;
74344;SDS011;62776;50.518;6.732;2022-10-16T04:49:48;2.42;;;2.28;;
74344;SDS011;62776;50.518;6.732;2022-10-16T04:52:34;3.25;;;2.63;;
74344;SDS011;62776;50.518;6.732;2022-10-16T04:55:20;2.60;;;2.40;;
74344;SDS011;62776;50.518;6.732;2022-10-16T04:58:06;2.13;;;2.03;;
74344;SDS011;62776;50.518;6.732;2022-10-16T05:00:52;2.42;;;2.22;;
74344;SDS011;62776;50.518;6.732;2022-10-16T05:03:39;2.78;;;2.58;;
74344;SDS011;62776;50.518;6.732;2022-10-16T05:06:25;1.83;;;1.73;;
74344;SDS011;62776;50.518;6.732;2022-10-16T05:09:11;2.92;;;2.15;;
74344;SDS011;62776;50.518;6.732;2022-10-16T05:11:57;2.50;;;1.80;;
74344;SDS011;62776;50.518;6.732;2022-10-16T05:14:43;2.28;;;1.80;;
74344;SDS011;62776;50.518;6.732;2022-10-16T05:17:29;4.03;;;1.70;;
74344;SDS011;62776;50.518;6.732;2022-10-16T05:20:15;2.13;;;1.92;;
74344;SDS011;62776;50.518;6.732;2022-10-16T05:23:01;2.08;;;1.90;;
74344;SDS011;62776;50.518;6.732;2022-10-16T05:25:54;1.50;;;1.40;;
74344;SDS011;62776;50.518;6.732;2022-10-16T05:28:43;3.45;;;1.60;;
74344;SDS011;62776;50.518;6.732;2022-10-16T05:31:29;1.63;;;1.52;;
74344;SDS011;62776;50.518;6.732;2022-10-16T05:34:15;2.28;;;1.73;;
74344;SDS011;62776;50.518;6.732;2022-10-16T05:37:01;1.48;;;1.40;;
74344;SDS011;62776;50.518;6.732;2022-10-16T05:39:47;1.55;;;1.45;;
74344;SDS011;62776;50.518;6.732;2022-10-16T05:42:33;1.80;;;1.70;;
74344;SDS011;62776;50.518;6.732;2022-10-16T05:45:19;1.42;;;1.17;;
74344;SDS011;62776;50.518;6.732;2022-10-16T05:48:05;1.85;;;1.63;;
74344;SDS011;62776;50.518;6.732;2022-10-16T05:51:02;2.67;;;1.60;;
74344;SDS011;62776;50.518;6.732;2022-10-16T05:53:51;2.30;;;1.77;;
74344;SDS011;62776;50.518;6.732;2022-10-16T05:56:37;2.28;;;1.73;;
74344;SDS011;62776;50.518;6.732;2022-10-16T05:59:24;1.80;;;1.60;;
74344;SDS011;62776;50.518;6.732;2022-10-16T06:02:11;1.67;;;1.42;;
74344;SDS011;62776;50.518;6.732;2022-10-16T06:04:58;3.35;;;1.75;;
74344;SDS011;62776;50.518;6.732;2022-10-16T06:07:44;1.40;;;1.27;;
74344;SDS011;62776;50.518;6.732;2022-10-16T06:10:30;1.85;;;1.55;;
74344;SDS011;62776;50.518;6.732;2022-10-16T06:13:17;1.13;;;1.13;;
74344;SDS011;62776;50.518;6.732;2022-10-16T06:16:03;2.42;;;1.52;;
74344;SDS011;62776;50.518;6.732;2022-10-16T06:18:53;2.55;;;1.30;;
74344;SDS011;62776;50.518;6.732;2022-10-16T06:21:40;1.85;;;1.40;;
74344;SDS011;62776;50.518;6.732;2022-10-16T06:24:26;2.25;;;1.17;;
74344;SDS011;62776;50.518;6.732;2022-10-16T06:27:12;1.00;;;1.00;;
74344;SDS011;62776;50.518;6.732;2022-10-16T06:29:58;1.63;;;1.25;;
74344;SDS011;62776;50.518;6.732;2022-10-16T06:32:45;1.77;;;1.20;;
74344;SDS011;62776;50.518;6.732;2022-10-16T06:35:31;1.38;;;1.10;;
74344;SDS011;62776;50.518;6.732;2022-10-16T06:38:17;1.10;;;1.00;;
74344;SDS011;62776;50.518;6.732;2022-10-16T06:41:03;1.00;;;0.90;;
74344;SDS011;62776;50.518;6.732;2022-10-16T06:43:50;1.98;;;1.00;;
74344;SDS011;62776;50.518;6.732;2022-10-16T06:46:37;1.83;;;1.02;;
74344;SDS011;62776;50.518;6.732;2022-10-16T06:49:23;1.95;;;1.00;;
74344;SDS011;62776;50.518;6.732;2022-10-16T06:52:09;1.10;;;0.98;;
74344;SDS011;62776;50.518;6.732;2022-10-16T06:54:55;0.93;;;0.90;;
74344;SDS011;62776;50.518;6.732;2022-10-16T06:57:41;1.02;;;1.00;;
74344;SDS011;62776;50.518;6.732;2022-10-16T07:00:28;0.85;;;0.80;;
74344;SDS011;62776;50.518;6.732;2022-10-16T07:03:14;4.25;;;0.80;;
74344;SDS011;62776;50.518;6.732;2022-10-16T07:06:01;1.42;;;1.25;;
74344;SDS011;62776;50.518;6.732;2022-10-16T07:08:49;2.13;;;0.93;;
74344;SDS011;62776;50.518;6.732;2022-10-16T07:11:37;1.05;;;0.82;;
74344;SDS011;62776;50.518;6.732;2022-10-16T07:14:23;1.45;;;0.80;;
74344;SDS011;62776;50.518;6.732;2022-10-16T07:17:10;0.95;;;0.77;;
74344;SDS011;62776;50.518;6.732;2022-10-16T07:19:56;2.20;;;1.00;;
74344;SDS011;62776;50.518;6.732;2022-10-16T07:22:42;1.23;;;1.00;;
74344;SDS011;62776;50.518;6.732;2022-10-16T07:25:28;0.70;;;0.70;;
74344;SDS011;62776;50.518;6.732;2022-10-16T07:28:14;1.30;;;1.00;;
74344;SDS011;62776;50.518;6.732;2022-10-16T07:31:07;3.25;;;1.17;;
74344;SDS011;62776;50.518;6.732;2022-10-16T07:33:57;1.27;;;0.90;;
74344;SDS011;62776;50.518;6.732;2022-10-16T07:36:46;1.63;;;0.77;;
74344;SDS011;62776;50.518;6.732;2022-10-16T07:39:33;2.28;;;1.15;;
74344;SDS011;62776;50.518;6.732;2022-10-16T07:42:19;1.48;;;0.90;;
74344;SDS011;62776;50.518;6.732;2022-10-16T07:45:06;0.73;;;0.73;;
74344;SDS011;62776;50.518;6.732;2022-10-16T07:47:52;2.55;;;1.00;;
74344;SDS011;62776;50.518;6.732;2022-10-16T07:50:38;1.00;;;1.00;;
74344;SDS011;62776;50.518;6.732;2022-10-16T07:53:24;0.98;;;0.88;;
74344;SDS011;62776;50.518;6.732;2022-10-16T07:56:11;1.33;;;0.80;;
74344;SDS011;62776;50.518;6.732;2022-10-16T07:58:58;1.30;;;0.90;;
74344;SDS011;62776;50.518;6.732;2022-10-16T08:01:44;1.73;;;1.17;;
74344;SDS011;62776;50.518;6.732;2022-10-16T08:04:30;2.53;;;1.05;;
74344;SDS011;62776;50.518;6.732;2022-10-16T08:07:16;1.10;;;0.98;;
74344;SDS011;62776;50.518;6.732;2022-10-16T08:10:02;1.17;;;0.70;;
74344;SDS011;62776;50.518;6.732;2022-10-16T08:12:48;3.38;;;1.00;;
74344;SDS011;62776;50.518;6.732;2022-10-16T08:15:35;2.13;;;1.08;;
74344;SDS011;62776;50.518;6.732;2022-10-16T08:18:21;1.95;;;0.85;;
74344;SDS011;62776;50.518;6.732;2022-10-16T08:21:15;2.00;;;0.85;;
74344;SDS011;62776;50.518;6.732;2022-10-16T08:24:06;0.80;;;0.80;;
74344;SDS011;62776;50.518;6.732;2022-10-16T08:26:55;1.33;;;0.80;;
74344;SDS011;62776;50.518;6.732;2022-10-16T08:29:41;0.85;;;0.82;;
74344;SDS011;62776;50.518;6.732;2022-10-16T08:32:27;0.70;;;0.70;;
74344;SDS011;62776;50.518;6.732;2022-10-16T08:35:13;1.77;;;1.13;;
74344;SDS011;62776;50.518;6.732;2022-10-16T08:38:02;0.60;;;0.60;;
74344;SDS011;62776;50.518;6.732;2022-10-16T08:40:49;1.35;;;0.90;;
74344;SDS011;62776;50.518;6.732;2022-10-16T08:43:40;0.80;;;0.80;;
74344;SDS011;62776;50.518;6.732;2022-10-16T08:49:36;0.65;;;0.60;;
74344;SDS011;62776;50.518;6.732;2022-10-16T08:52:28;0.70;;;0.70;;
74344;SDS011;62776;50.518;6.732;2022-10-16T08:58:19;3.88;;;1.15;;
74344;SDS011;62776;50.518;6.732;2022-10-16T09:01:11;2.17;;;0.77;;
74344;SDS011;62776;50.518;6.732;2022-10-16T09:06:52;0.95;;;0.68;;
74344;SDS011;62776;50.518;6.732;2022-10-16T09:10:05;0.88;;;0.70;;
74344;SDS011;62776;50.518;6.732;2022-10-16T09:13:04;0.65;;;0.60;;
74344;SDS011;62776;50.518;6.732;2022-10-16T09:19:15;0.75;;;0.50;;
74344;SDS011;62776;50.518;6.732;2022-10-16T09:22:14;0.40;;;0.40;;
74344;SDS011;62776;50.518;6.732;2022-10-16T09:25:10;0.55;;;0.55;;
74344;SDS011;62776;50.518;6.732;2022-10-16T09:27:58;0.55;;;0.50;;
74344;SDS011;62776;50.518;6.732;2022-10-16T09:30:45;1.73;;;0.60;;
74344;SDS011;62776;50.518;6.732;2022-10-16T09:33:34;4.72;;;0.75;;
74344;SDS011;62776;50.518;6.732;2022-10-16T09:36:24;1.70;;;0.70;;
74344;SDS011;62776;50.518;6.732;2022-10-16T09:39:13;1.02;;;0.70;;
74344;SDS011;62776;50.518;6.732;2022-10-16T09:41:59;3.33;;;0.50;;
74344;SDS011;62776;50.518;6.732;2022-10-16T09:44:47;0.60;;;0.50;;
74344;SDS011;62776;50.518;6.732;2022-10-16T09:47:36;0.55;;;0.55;;
74344;SDS011;62776;50.518;6.732;2022-10-16T09:50:27;0.55;;;0.55;;
74344;SDS011;62776;50.518;6.732;2022-10-16T09:53:14;1.50;;;0.70;;
74344;SDS011;62776;50.518;6.732;2022-10-16T09:56:03;0.70;;;0.60;;
74344;SDS011;62776;50.518;6.732;2022-10-16T09:58:55;0.60;;;0.60;;
74344;SDS011;62776;50.518;6.732;2022-10-16T10:01:46;0.50;;;0.50;;
74344;SDS011;62776;50.518;6.732;2022-10-16T10:07:25;1.17;;;0.68;;
74344;SDS011;62776;50.518;6.732;2022-10-16T10:10:20;0.63;;;0.63;;
74344;SDS011;62776;50.518;6.732;2022-10-16T10:13:18;0.95;;;0.70;;
74344;SDS011;62776;50.518;6.732;2022-10-16T10:16:06;2.15;;;0.77;;
74344;SDS011;62776;50.518;6.732;2022-10-16T10:18:58;1.75;;;0.55;;
74344;SDS011;62776;50.518;6.732;2022-10-16T10:21:45;1.00;;;0.90;;
74344;SDS011;62776;50.518;6.732;2022-10-16T10:24:31;1.40;;;0.65;;
74344;SDS011;62776;50.518;6.732;2022-10-16T10:27:17;0.88;;;0.52;;
74344;SDS011;62776;50.518;6.732;2022-10-16T10:30:07;1.98;;;1.15;;
74344;SDS011;62776;50.518;6.732;2022-10-16T10:33:14;1.60;;;0.60;;
74344;SDS011;62776;50.518;6.732;2022-10-16T10:39:25;0.80;;;0.80;;
74344;SDS011;62776;50.518;6.732;2022-10-16T10:42:25;3.17;;;0.80;;
74344;SDS011;62776;50.518;6.732;2022-10-16T10:45:28;0.80;;;0.80;;
74344;SDS011;62776;50.518;6.732;2022-10-16T10:51:44;0.50;;;0.50;;
74344;SDS011;62776;50.518;6.732;2022-10-16T10:55:26;1.40;;;0.80;;
74344;SDS011;62776;50.518;6.732;2022-10-16T11:01:38;0.65;;;0.45;;
74344;SDS011;62776;50.518;6.732;2022-10-16T11:04:49;0.40;;;0.40;;
74344;SDS011;62776;50.518;6.732;2022-10-16T11:08:19;2.00;;;0.43;;
74344;SDS011;62776;50.518;6.732;2022-10-16T11:11:18;0.90;;;0.60;;
74344;SDS011;62776;50.518;6.732;2022-10-16T11:14:16;0.60;;;0.60;;
74344;SDS011;62776;50.518;6.732;2022-10-16T11:17:12;1.00;;;0.70;;
74344;SDS011;62776;50.518;6.732;2022-10-16T11:20:13;0.70;;;0.60;;
74344;SDS011;62776;50.518;6.732;2022-10-16T11:23:23;4.57;;;0.93;;
74344;SDS011;62776;50.518;6.732;2022-10-16T11:26:21;1.65;;;0.90;;
74344;SDS011;62776;50.518;6.732;2022-10-16T11:29:13;0.68;;;0.55;;
74344;SDS011;62776;50.518;6.732;2022-10-16T11:35:02;1.88;;;0.50;;
74344;SDS011;62776;50.518;6.732;2022-10-16T11:38:00;0.50;;;0.50;;
74344;SDS011;62776;50.518;6.732;2022-10-16T11:40:50;1.45;;;0.70;;
74344;SDS011;62776;50.518;6.732;2022-10-16T11:43:43;1.17;;;0.75;;
74344;SDS011;62776;50.518;6.732;2022-10-16T11:46:38;0.60;;;0.60;;
74344;SDS011;62776;50.518;6.732;2022-10-16T11:49:33;0.90;;;0.65;;
74344;SDS011;62776;50.518;6.732;2022-10-16T11:52:33;1.52;;;1.00;;
74344;SDS011;62776;50.518;6.732;2022-10-16T11:55:26;1.33;;;1.20;;
74344;SDS011;62776;50.518;6.732;2022-10-16T11:58:29;0.70;;;0.70;;
74344;SDS011;62776;50.518;6.732;2022-10-16T12:01:36;1.17;;;0.70;;
74344;SDS011;62776;50.518;6.732;2022-10-16T12:07:23;0.68;;;0.68;;
74344;SDS011;62776;50.518;6.732;2022-10-16T12:10:19;0.68;;;0.57;;
74344;SDS011;62776;50.518;6.732;2022-10-16T12:13:29;0.85;;;0.80;;
74344;SDS011;62776;50.518;6.732;2022-10-16T12:16:21;1.38;;;0.60;;
74344;SDS011;62776;50.518;6.732;2022-10-16T12:19:12;0.70;;;0.68;;
74344;SDS011;62776;50.518;6.732;2022-10-16T12:22:01;3.13;;;0.50;;
74344;SDS011;62776;50.518;6.732;2022-10-16T12:24:51;0.75;;;0.75;;
74344;SDS011;62776;50.518;6.732;2022-10-16T12:27:39;2.33;;;0.40;;
74344;SDS011;62776;50.518;6.732;2022-10-16T12:30:25;1.73;;;0.70;;
74344;SDS011;62776;50.518;6.732;2022-10-16T12:33:24;0.60;;;0.60;;
74344;SDS011;62776;50.518;6.732;2022-10-16T12:36:32;1.20;;;0.68;;
74344;SDS011;62776;50.518;6.732;2022-10-16T12:39:23;0.80;;;0.50;;
74344;SDS011;62776;50.518;6.732;2022-10-16T12:48:21;0.57;;;0.50;;
74344;SDS011;62776;50.518;6.732;2022-10-16T12:51:33;0.40;;;0.40;;
74344;SDS011;62776;50.518;6.732;2022-10-16T12:54:23;1.98;;;0.70;;
74344;SDS011;62776;50.518;6.732;2022-10-16T13:00:44;0.60;;;0.57;;
74344;SDS011;62776;50.518;6.732;2022-10-16T13:03:35;1.10;;;0.60;;
74344;SDS011;62776;50.518;6.732;2022-10-16T13:06:46;0.40;;;0.40;;
74344;SDS011;62776;50.518;6.732;2022-10-16T13:13:01;3.33;;;0.77;;
74344;SDS011;62776;50.518;6.732;2022-10-16T13:16:02;1.05;;;0.50;;
74344;SDS011;62776;50.518;6.732;2022-10-16T13:25:24;0.77;;;0.57;;
74344;SDS011;62776;50.518;6.732;2022-10-16T13:28:21;5.82;;;0.98;;
74344;SDS011;62776;50.518;6.732;2022-10-16T13:31:18;0.70;;;0.40;;
74344;SDS011;62776;50.518;6.732;2022-10-16T13:34:11;1.80;;;0.40;;
74344;SDS011;62776;50.518;6.732;2022-10-16T13:37:15;1.25;;;0.75;;
74344;SDS011;62776;50.518;6.732;2022-10-16T13:40:18;0.50;;;0.50;;
74344;SDS011;62776;50.518;6.732;2022-10-16T13:43:07;0.40;;;0.40;;
74344;SDS011;62776;50.518;6.732;2022-10-16T13:48:43;0.60;;;0.60;;
74344;SDS011;62776;50.518;6.732;2022-10-16T13:51:41;1.58;;;0.60;;
74344;SDS011;62776;50.518;6.732;2022-10-16T13:54:38;1.40;;;0.60;;
74344;SDS011;62776;50.518;6.732;2022-10-16T13:57:24;0.98;;;0.70;;
74344;SDS011;62776;50.518;6.732;2022-10-16T14:00:17;0.50;;;0.50;;
74344;SDS011;62776;50.518;6.732;2022-10-16T14:03:12;0.70;;;0.60;;
74344;SDS011;62776;50.518;6.732;2022-10-16T14:06:00;0.52;;;0.52;;
74344;SDS011;62776;50.518;6.732;2022-10-16T14:08:50;0.75;;;0.60;;
74344;SDS011;62776;50.518;6.732;2022-10-16T14:11:50;0.70;;;0.50;;
74344;SDS011;62776;50.518;6.732;2022-10-16T14:14:40;1.10;;;1.00;;
74344;SDS011;62776;50.518;6.732;2022-10-16T14:17:29;1.80;;;0.70;;
74344;SDS011;62776;50.518;6.732;2022-10-16T14:20:18;0.50;;;0.50;;
74344;SDS011;62776;50.518;6.732;2022-10-16T14:23:23;0.70;;;0.60;;
74344;SDS011;62776;50.518;6.732;2022-10-16T14:26:24;1.10;;;0.52;;
74344;SDS011;62776;50.518;6.732;2022-10-16T14:29:17;0.50;;;0.50;;
74344;SDS011;62776;50.518;6.732;2022-10-16T14:32:05;0.98;;;0.77;;
74344;SDS011;62776;50.518;6.732;2022-10-16T14:35:21;1.17;;;0.70;;
74344;SDS011;62776;50.518;6.732;2022-10-16T14:38:16;0.95;;;0.93;;
74344;SDS011;62776;50.518;6.732;2022-10-16T14:41:05;1.00;;;1.00;;
74344;SDS011;62776;50.518;6.732;2022-10-16T14:43:53;0.82;;;0.80;;
74344;SDS011;62776;50.518;6.732;2022-10-16T14:46:41;1.85;;;0.68;;
74344;SDS011;62776;50.518;6.732;2022-10-16T14:49:29;0.60;;;0.60;;
74344;SDS011;62776;50.518;6.732;2022-10-16T14:52:16;1.92;;;0.82;;
74344;SDS011;62776;50.518;6.732;2022-10-16T14:55:02;0.75;;;0.75;;
74344;SDS011;62776;50.518;6.732;2022-10-16T14:57:49;1.27;;;1.00;;
74344;SDS011;62776;50.518;6.732;2022-10-16T15:00:35;0.52;;;0.52;;
74344;SDS011;62776;50.518;6.732;2022-10-16T15:03:21;0.63;;;0.63;;
74344;SDS011;62776;50.518;6.732;2022-10-16T15:06:09;2.15;;;0.68;;
74344;SDS011;62776;50.518;6.732;2022-10-16T15:08:57;0.60;;;0.60;;
74344;SDS011;62776;50.518;6.732;2022-10-16T15:11:43;0.60;;;0.60;;
74344;SDS011;62776;50.518;6.732;2022-10-16T15:14:29;0.85;;;0.85;;
74344;SDS011;62776;50.518;6.732;2022-10-16T15:17:15;0.60;;;0.60;;
74344;SDS011;62776;50.518;6.732;2022-10-16T15:20:01;0.60;;;0.50;;
74344;SDS011;62776;50.518;6.732;2022-10-16T15:22:47;0.80;;;0.80;;
74344;SDS011;62776;50.518;6.732;2022-10-16T15:25:35;0.85;;;0.52;;
74344;SDS011;62776;50.518;6.732;2022-10-16T15:28:26;4.22;;;0.60;;
74344;SDS011;62776;50.518;6.732;2022-10-16T15:31:12;0.50;;;0.50;;
74344;SDS011;62776;50.518;6.732;2022-10-16T15:33:59;0.60;;;0.60;;
74344;SDS011;62776;50.518;6.732;2022-10-16T15:36:49;0.82;;;0.70;;
74344;SDS011;62776;50.518;6.732;2022-10-16T15:39:35;2.85;;;0.90;;
74344;SDS011;62776;50.518;6.732;2022-10-16T15:42:21;1.02;;;0.95;;
74344;SDS011;62776;50.518;6.732;2022-10-16T15:45:08;1.15;;;0.90;;
74344;SDS011;62776;50.518;6.732;2022-10-16T15:47:56;1.58;;;1.10;;
74344;SDS011;62776;50.518;6.732;2022-10-16T15:50:42;1.15;;;1.10;;
74344;SDS011;62776;50.518;6.732;2022-10-16T15:53:28;0.88;;;0.88;;
74344;SDS011;62776;50.518;6.732;2022-10-16T15:56:14;2.67;;;0.80;;
74344;SDS011;62776;50.518;6.732;2022-10-16T15:59:01;2.05;;;1.95;;
74344;SDS011;62776;50.518;6.732;2022-10-16T16:01:47;1.80;;;1.02;;
74344;SDS011;62776;50.518;6.732;2022-10-16T16:04:33;1.00;;;0.90;;
74344;SDS011;62776;50.518;6.732;2022-10-16T16:07:22;0.70;;;0.70;;
74344;SDS011;62776;50.518;6.732;2022-10-16T16:10:09;0.70;;;0.70;;
74344;SDS011;62776;50.518;6.732;2022-10-16T16:12:56;0.98;;;0.90;;
74344;SDS011;62776;50.518;6.732;2022-10-16T16:15:42;2.28;;;0.93;;
74344;SDS011;62776;50.518;6.732;2022-10-16T16:18:28;0.77;;;0.77;;
74344;SDS011;62776;50.518;6.732;2022-10-16T16:21:14;1.23;;;0.73;;
74344;SDS011;62776;50.518;6.732;2022-10-16T16:24:00;3.55;;;1.13;;
74344;SDS011;62776;50.518;6.732;2022-10-16T16:26:52;1.02;;;0.93;;
74344;SDS011;62776;50.518;6.732;2022-10-16T16:29:38;4.95;;;1.08;;
74344;SDS011;62776;50.518;6.732;2022-10-16T16:32:24;1.38;;;1.08;;
74344;SDS011;62776;50.518;6.732;2022-10-16T16:35:11;5.93;;;5.20;;
74344;SDS011;62776;50.518;6.732;2022-10-16T16:37:57;2.63;;;2.42;;
74344;SDS011;62776;50.518;6.732;2022-10-16T16:40:43;2.03;;;1.92;;
74344;SDS011;62776;50.518;6.732;2022-10-16T16:43:29;4.22;;;1.20;;
74344;SDS011;62776;50.518;6.732;2022-10-16T16:46:15;1.40;;;1.30;;
74344;SDS011;62776;50.518;6.732;2022-10-16T16:49:01;1.38;;;1.17;;
74344;SDS011;62776;50.518;6.732;2022-10-16T16:51:48;1.70;;;1.13;;
74344;SDS011;62776;50.518;6.732;2022-10-16T16:54:34;3.78;;;1.60;;
74344;SDS011;62776;50.518;6.732;2022-10-16T16:57:20;2.33;;;1.52;;
74344;SDS011;62776;50.518;6.732;2022-10-16T17:00:06;1.77;;;1.55;;
74344;SDS011;62776;50.518;6.732;2022-10-16T17:02:53;2.00;;;1.85;;
74344;SDS011;62776;50.518;6.732;2022-10-16T17:05:39;2.20;;;1.60;;
74344;SDS011;62776;50.518;6.732;2022-10-16T17:08:25;2.72;;;1.30;;
74344;SDS011;62776;50.518;6.732;2022-10-16T17:11:12;3.65;;;1.50;;
74344;SDS011;62776;50.518;6.732;2022-10-16T17:14:00;1.77;;;1.67;;
74344;SDS011;62776;50.518;6.732;2022-10-16T17:16:47;1.80;;;1.52;;
74344;SDS011;62776;50.518;6.732;2022-10-16T17:19:33;3.63;;;1.60;;
74344;SDS011;62776;50.518;6.732;2022-10-16T17:22:19;3.47;;;1.80;;
74344;SDS011;62776;50.518;6.732;2022-10-16T17:25:06;2.90;;;1.70;;
74344;SDS011;62776;50.518;6.732;2022-10-16T17:27:52;2.72;;;2.08;;
74344;SDS011;62776;50.518;6.732;2022-10-16T17:30:39;2.42;;;1.73;;
74344;SDS011;62776;50.518;6.732;2022-10-16T17:33:25;2.25;;;2.00;;
74344;SDS011;62776;50.518;6.732;2022-10-16T17:36:11;3.50;;;2.50;;
74344;SDS011;62776;50.518;6.732;2022-10-16T17:38:59;3.67;;;2.47;;
74344;SDS011;62776;50.518;6.732;2022-10-16T17:41:48;3.90;;;1.95;;
74344;SDS011;62776;50.518;6.732;2022-10-16T17:44:34;3.85;;;2.67;;
74344;SDS011;62776;50.518;6.732;2022-10-16T17:47:20;3.17;;;2.67;;
74344;SDS011;62776;50.518;6.732;2022-10-16T17:50:06;3.20;;;2.90;;
74344;SDS011;62776;50.518;6.732;2022-10-16T17:52:53;6.45;;;3.28;;
74344;SDS011;62776;50.518;6.732;2022-10-16T17:55:39;5.55;;;3.17;;
74344;SDS011;62776;50.518;6.732;2022-10-16T17:58:34;6.20;;;5.50;;
74344;SDS011;62776;50.518;6.732;2022-10-16T18:01:24;7.22;;;6.25;;
74344;SDS011;62776;50.518;6.732;2022-10-16T18:04:29;8.93;;;5.63;;